createdAt,value
2019-04-06T00:02:25.150Z,18.02
2019-04-06T00:04:53.490Z,17.75
2019-04-06T00:07:22.040Z,18.23
2019-04-06T00:09:50.536Z,18.92
2019-04-06T00:12:18.909Z,17.87
2019-04-06T00:14:47.214Z,18.12
2019-04-06T00:17:15.611Z,18.55
2019-04-06T00:19:44.015Z,18.82
2019-04-06T00:22:12.470Z,17.70
2019-04-06T00:24:40.836Z,17.95
2019-04-06T00:27:09.208Z,18.87
2019-04-06T00:29:37.571Z,18.40
2019-04-06T00:32:10.719Z,18.67
2019-04-06T00:34:39.113Z,18.20
2019-04-06T00:37:07.545Z,17.75
2019-04-06T00:39:36.027Z,18.50
2019-04-06T00:42:04.416Z,19.67
2019-04-06T00:44:32.772Z,18.02
2019-04-06T00:47:01.081Z,17.55
2019-04-06T00:49:29.457Z,19.35
2019-04-06T00:51:57.921Z,18.57
2019-04-06T00:54:26.397Z,18.33
2019-04-06T00:56:54.717Z,17.23
2019-04-06T00:59:23.037Z,19.90
2019-04-06T01:01:51.393Z,19.25
2019-04-06T01:04:19.693Z,18.65
2019-04-06T01:06:48.094Z,18.35
2019-04-06T01:09:16.564Z,19.80
2019-04-06T01:11:45.090Z,18.15
2019-04-06T01:14:13.485Z,19.32
2019-04-06T01:16:41.986Z,20.25
2019-04-06T01:19:10.418Z,19.10
2019-04-06T01:21:38.807Z,19.72
2019-04-06T01:24:07.252Z,20.37
2019-04-06T01:26:36.155Z,19.86
2019-04-06T01:29:04.598Z,20.10
2019-04-06T01:31:32.974Z,20.57
2019-04-06T01:34:01.363Z,20.60
2019-04-06T01:36:29.852Z,20.80
2019-04-06T01:38:58.256Z,20.35
2019-04-06T01:41:26.770Z,19.32
2019-04-06T01:43:55.165Z,19.15
2019-04-06T01:46:23.485Z,21.12
2019-04-06T01:48:51.978Z,20.57
2019-04-06T01:51:20.429Z,20.48
2019-04-06T01:53:48.823Z,19.12
2019-04-06T01:56:18.634Z,20.17
2019-04-06T01:58:47.513Z,20.43
2019-04-06T02:01:17.484Z,20.77
2019-04-06T02:03:45.899Z,21.65
2019-04-06T02:06:14.959Z,22.00
2019-04-06T02:08:43.338Z,21.12
2019-04-06T02:11:11.797Z,22.30
2019-04-06T02:13:40.158Z,20.13
2019-04-06T02:16:08.726Z,22.35
2019-04-06T02:18:37.030Z,20.30
2019-04-06T02:21:05.398Z,21.20
2019-04-06T02:23:33.832Z,21.65
2019-04-06T02:26:02.140Z,21.05
2019-04-06T02:28:30.560Z,21.05
2019-04-06T02:31:00.534Z,21.50
2019-04-06T02:33:48.476Z,20.37
2019-04-06T02:36:24.574Z,19.52
2019-04-06T02:38:54.578Z,20.60
2019-04-06T02:41:42.532Z,19.95
2019-04-06T02:44:10.904Z,19.87
2019-04-06T02:46:39.325Z,21.68
2019-04-06T02:49:07.896Z,21.15
2019-04-06T02:51:36.417Z,21.85
2019-04-06T02:54:04.859Z,21.62
2019-04-06T02:56:44.898Z,19.73
2019-04-06T02:59:03.430Z,22.07
2019-04-06T03:01:31.858Z,22.52
2019-04-06T03:04:00.589Z,21.27
2019-04-06T03:06:29.057Z,20.53
2019-04-06T03:08:57.415Z,20.00
2019-04-06T03:11:25.811Z,18.10
2019-04-06T03:13:54.179Z,19.62
2019-04-06T03:16:23.156Z,20.68
2019-04-06T03:18:51.477Z,21.30
2019-04-06T03:21:19.878Z,21.20
2019-04-06T03:23:51.568Z,19.23
2019-04-06T03:26:18.359Z,20.75
2019-04-06T03:28:46.859Z,18.30
2019-04-06T03:31:15.595Z,18.20
2019-04-06T03:33:44.217Z,19.67
2019-04-06T03:36:12.558Z,19.95
2019-04-06T03:38:41.029Z,20.05
2019-04-06T03:41:09.596Z,21.70
2019-04-06T03:43:37.991Z,19.23
2019-04-06T03:46:06.355Z,17.77
2019-04-06T03:48:34.743Z,18.17
2019-04-06T03:51:03.257Z,18.80
2019-04-06T03:53:31.633Z,18.37
2019-04-06T03:56:00.095Z,20.80
2019-04-06T03:58:28.506Z,20.12
2019-04-06T04:00:56.883Z,19.73
2019-04-06T04:03:25.248Z,20.00
2019-04-06T04:05:53.770Z,20.75
2019-04-06T04:08:22.178Z,20.10
2019-04-06T04:10:50.873Z,21.12
2019-04-06T04:13:19.328Z,18.62
2019-04-06T04:15:47.705Z,17.70
2019-04-06T04:18:16.174Z,20.02
2019-04-06T04:20:44.534Z,19.42
2019-04-06T04:23:13.050Z,18.40
2019-04-06T04:25:41.441Z,18.13
2019-04-06T04:28:09.836Z,20.25
2019-04-06T04:30:38.206Z,19.62
2019-04-06T04:33:06.635Z,19.95
2019-04-06T04:35:35.449Z,20.10
2019-04-06T04:38:03.812Z,19.80
2019-04-06T04:40:32.201Z,20.02
2019-04-06T04:43:00.665Z,19.57
2019-04-06T04:45:29.150Z,20.23
2019-04-06T04:47:57.714Z,20.47
2019-04-06T04:50:26.194Z,21.10
2019-04-06T04:52:55.241Z,20.16
2019-04-06T04:55:23.586Z,19.95
2019-04-06T04:57:52.094Z,20.37
2019-04-06T05:00:21.044Z,21.50
2019-04-06T05:02:49.367Z,22.75
2019-04-06T05:05:17.808Z,23.40
2019-04-06T05:07:46.198Z,20.85
2019-04-06T05:10:14.684Z,20.90
2019-04-06T05:12:43.040Z,20.95
2019-04-06T05:15:17.784Z,21.27
2019-04-06T05:17:46.236Z,21.68
2019-04-06T05:20:14.655Z,21.40
2019-04-06T05:22:43.062Z,21.77
2019-04-06T05:25:11.493Z,21.20
2019-04-06T05:27:50.784Z,22.42
2019-04-06T05:30:10.878Z,21.17
2019-04-06T05:32:39.311Z,21.50
2019-04-06T05:35:07.713Z,20.27
2019-04-06T05:37:36.178Z,22.07
2019-04-06T05:40:05.114Z,19.37
2019-04-06T05:42:33.514Z,18.80
2019-04-06T05:45:01.917Z,19.65
2019-04-06T05:47:30.362Z,18.45
2019-04-06T05:49:58.766Z,18.67
2019-04-06T05:52:27.137Z,17.87
2019-04-06T05:54:55.935Z,18.85
2019-04-06T05:57:24.318Z,20.92
2019-04-06T06:02:33.909Z,19.73
2019-04-06T06:05:02.302Z,21.37
2019-04-06T06:07:30.774Z,20.05
2019-04-06T06:09:59.283Z,18.50
2019-04-06T06:12:27.619Z,19.32
2019-04-06T06:14:56.016Z,17.52
2019-04-06T06:17:24.470Z,20.35
2019-04-06T06:19:52.893Z,18.57
2019-04-06T06:22:22.066Z,18.54
2019-04-06T06:24:50.555Z,18.95
2019-04-06T06:27:18.872Z,18.02
2019-04-06T06:29:47.280Z,18.25
2019-04-06T06:32:15.842Z,17.87
2019-04-06T06:34:44.269Z,18.05
2019-04-06T06:37:12.793Z,17.52
2019-04-06T06:39:42.109Z,17.70
2019-04-06T06:42:10.532Z,19.23
2019-04-06T06:44:38.942Z,19.25
2019-04-06T06:47:07.549Z,18.17
2019-04-06T06:49:35.934Z,18.82
2019-04-06T06:52:04.529Z,18.15
2019-04-06T06:54:32.902Z,18.35
2019-04-06T06:57:01.394Z,17.77
2019-04-06T06:59:29.926Z,19.42
2019-04-06T07:01:58.272Z,19.07
2019-04-06T07:04:26.662Z,19.42
2019-04-06T07:06:55.050Z,18.73
2019-04-06T07:09:23.423Z,18.65
2019-04-06T07:11:52.282Z,18.20
2019-04-06T07:14:20.650Z,18.97
2019-04-06T07:16:48.976Z,18.02
2019-04-06T07:19:17.369Z,17.95
2019-04-06T07:21:45.746Z,18.50
2019-04-06T07:24:14.130Z,17.67
2019-04-06T07:26:42.507Z,18.48
2019-04-06T07:29:10.899Z,18.00
2019-04-06T07:31:39.285Z,17.95
2019-04-06T07:34:07.807Z,18.50
2019-04-06T07:36:36.182Z,18.17
2019-04-06T07:39:06.153Z,18.35
2019-04-06T07:41:35.237Z,18.74
2019-04-06T07:44:05.660Z,18.77
2019-04-06T07:46:33.791Z,17.77
2019-04-06T07:49:08.409Z,18.82
2019-04-06T07:51:32.194Z,18.07
2019-04-06T07:54:00.502Z,17.33
2019-04-06T07:56:28.983Z,17.70
2019-04-06T07:58:57.396Z,16.93
2019-04-06T08:01:25.864Z,17.60
2019-04-06T08:03:54.160Z,17.27
2019-04-06T08:06:22.679Z,16.50
2019-04-06T08:08:51.150Z,18.02
2019-04-06T08:11:19.541Z,17.20
2019-04-06T08:13:48.186Z,17.82
2019-04-06T08:16:16.492Z,16.90
2019-04-06T08:18:44.907Z,17.17
2019-04-06T08:21:14.025Z,16.32
2019-04-06T08:23:42.417Z,17.12
2019-04-06T08:26:10.891Z,16.73
2019-04-06T08:28:39.265Z,16.48
2019-04-06T08:31:07.715Z,16.05
2019-04-06T08:33:36.442Z,16.03
2019-04-06T08:36:04.851Z,16.05
2019-04-06T08:38:33.253Z,15.23
2019-04-06T08:41:01.821Z,15.75
2019-04-06T08:43:30.230Z,15.63
2019-04-06T08:45:58.618Z,14.85
2019-04-06T08:48:26.990Z,15.40
2019-04-06T08:50:55.382Z,15.80
2019-04-06T08:53:23.758Z,15.72
2019-04-06T08:55:52.148Z,15.87
2019-04-06T08:58:20.469Z,15.65
2019-04-06T09:00:49.171Z,15.16
2019-04-06T09:03:18.278Z,15.72
2019-04-06T09:05:46.856Z,15.28
2019-04-06T09:08:15.181Z,14.55
2019-04-06T09:10:43.596Z,14.53
2019-04-06T09:13:11.989Z,14.33
2019-04-06T09:15:40.433Z,15.83
2019-04-06T09:18:09.064Z,15.63
2019-04-06T09:20:37.595Z,14.18
2019-04-06T09:23:06.069Z,14.20
2019-04-06T09:25:34.572Z,15.15
2019-04-06T09:28:02.954Z,14.90
2019-04-06T09:30:31.602Z,15.38
2019-04-06T09:32:59.971Z,14.07
2019-04-06T09:35:28.362Z,15.20
2019-04-06T09:37:56.812Z,14.58
2019-04-06T09:40:27.917Z,15.17
2019-04-06T09:42:56.153Z,13.77
2019-04-06T09:45:26.174Z,14.35
2019-04-06T09:48:04.827Z,14.90
2019-04-06T09:50:34.859Z,14.40
2019-04-06T09:53:07.580Z,15.25
2019-04-06T09:58:29.037Z,14.78
2019-04-06T10:01:14.212Z,14.70
2019-04-06T10:03:44.271Z,14.30
2019-04-06T10:06:23.225Z,13.93
2019-04-06T10:09:05.237Z,14.68
2019-04-06T10:11:41.409Z,14.28
2019-04-06T10:14:11.465Z,13.30
2019-04-06T10:16:44.142Z,13.90
2019-04-06T10:19:29.365Z,13.40
2019-04-06T10:22:05.138Z,13.53
2019-04-06T10:24:35.217Z,13.48
2019-04-06T10:27:21.514Z,13.62
2019-04-06T10:30:07.462Z,14.50
2019-04-06T10:32:40.730Z,13.32
2019-04-06T10:35:16.470Z,13.35
2019-04-06T10:37:55.651Z,13.68
2019-04-06T10:40:35.231Z,13.23
2019-04-06T10:43:21.664Z,14.23
2019-04-06T10:45:51.842Z,13.72
2019-04-06T10:48:24.894Z,12.87
2019-04-06T10:51:07.341Z,13.15
2019-04-06T10:56:25.299Z,12.50
2019-04-06T10:59:13.808Z,13.38
2019-04-06T11:01:49.641Z,14.27
2019-04-06T11:04:19.743Z,13.65
2019-04-06T11:06:50.674Z,13.93
2019-04-06T11:09:36.978Z,14.23
2019-04-06T11:12:10.133Z,14.30
2019-04-06T11:14:51.709Z,13.20
2019-04-06T11:17:30.822Z,13.60
2019-04-06T11:20:00.794Z,13.50
2019-04-06T11:22:45.744Z,13.80
2019-04-06T11:25:18.709Z,13.40
2019-04-06T11:27:57.873Z,13.53
2019-04-06T11:30:45.854Z,12.87
2019-04-06T11:33:33.336Z,13.17
2019-04-06T11:36:09.098Z,13.75
2019-04-06T11:38:51.178Z,13.00
2019-04-06T11:43:53.765Z,13.33
2019-04-06T11:46:40.153Z,13.87
2019-04-06T11:49:13.209Z,13.53
2019-04-06T11:51:49.196Z,12.58
2019-04-06T11:54:19.213Z,12.98
2019-04-06T11:57:04.451Z,13.27
2019-04-06T11:59:50.941Z,12.60
2019-04-06T12:02:23.873Z,13.18
2019-04-06T12:05:08.693Z,13.10
2019-04-06T12:07:44.777Z,13.47
2019-04-06T12:10:23.873Z,12.27
2019-04-06T12:13:00.292Z,13.10
2019-04-06T12:15:39.497Z,13.32
2019-04-06T12:18:18.619Z,12.90
2019-04-06T12:20:48.656Z,12.98
2019-04-06T12:23:34.838Z,12.95
2019-04-06T12:26:07.593Z,13.30
2019-04-06T12:28:43.402Z,14.35
2019-04-06T12:31:16.384Z,12.50
2019-04-06T12:33:52.260Z,12.23
2019-04-06T12:36:25.246Z,11.75
2019-04-06T12:39:04.374Z,13.28
2019-04-06T12:41:37.320Z,12.88
2019-04-06T12:44:09.905Z,12.90
2019-04-06T12:46:48.837Z,12.57
2019-04-06T12:49:21.991Z,13.07
2019-04-06T12:52:08.267Z,12.53
2019-04-06T12:57:23.923Z,12.50
2019-04-06T12:59:59.743Z,13.23
2019-04-06T13:02:45.837Z,12.35
2019-04-06T13:05:32.167Z,11.83
2019-04-06T13:08:02.186Z,12.53
2019-04-06T13:10:32.217Z,12.43
2019-04-06T13:13:07.737Z,12.80
2019-04-06T13:15:37.720Z,13.00
2019-04-06T13:18:13.886Z,12.07
2019-04-06T13:20:43.961Z,13.05
2019-04-06T13:23:17.117Z,13.18
2019-04-06T13:26:04.038Z,12.43
2019-04-06T13:28:43.038Z,12.82
2019-04-06T13:31:13.098Z,11.65
2019-04-06T13:33:43.147Z,12.10
2019-04-06T13:36:29.235Z,11.63
2019-04-06T13:38:59.243Z,12.15
2019-04-06T13:41:47.177Z,12.18
2019-04-06T13:44:29.107Z,12.10
2019-04-06T13:49:37.780Z,11.48
2019-04-06T13:52:10.811Z,11.65
2019-04-06T13:54:56.937Z,11.80
2019-04-06T13:57:26.994Z,12.07
2019-04-06T13:59:57.035Z,12.03
2019-04-06T14:02:30.297Z,12.00
2019-04-06T14:05:06.332Z,12.17
2019-04-06T14:07:51.294Z,12.85
2019-04-06T14:10:36.551Z,11.80
2019-04-06T14:13:12.649Z,12.18
2019-04-06T14:15:57.715Z,11.90
2019-04-06T14:18:33.461Z,12.55
2019-04-06T14:21:12.312Z,11.85
2019-04-06T14:23:42.384Z,12.85
2019-04-06T14:26:21.120Z,13.18
2019-04-06T14:28:51.139Z,13.20
2019-04-06T14:31:28.316Z,12.78
2019-04-06T14:36:27.869Z,12.13
2019-04-06T14:39:09.927Z,12.25
2019-04-06T14:41:56.237Z,12.13
2019-04-06T14:44:42.135Z,12.53
2019-04-06T14:47:12.141Z,12.85
2019-04-06T14:49:42.173Z,12.73
2019-04-06T14:52:12.215Z,13.25
2019-04-06T14:54:42.615Z,12.73
2019-04-06T14:57:21.702Z,12.57
2019-04-06T15:00:03.786Z,12.18
2019-04-06T15:02:37.570Z,12.03
2019-04-06T15:05:11.338Z,12.10
2019-04-06T15:07:57.575Z,12.55
2019-04-06T15:10:33.907Z,13.05
2019-04-06T15:13:13.103Z,13.32
2019-04-06T15:15:52.569Z,12.68
2019-04-06T15:18:25.410Z,12.75
2019-04-06T15:20:58.327Z,13.10
2019-04-06T15:23:31.251Z,12.50
2019-04-06T15:26:19.526Z,12.23
2019-04-06T15:29:05.601Z,12.98
2019-04-06T15:31:35.600Z,13.55
2019-04-06T15:34:06.098Z,13.32
2019-04-06T15:36:36.190Z,12.98
2019-04-06T15:39:11.466Z,12.25
2019-04-06T15:41:56.322Z,12.43
2019-04-06T15:44:25.613Z,13.63
2019-04-06T15:46:55.709Z,12.10
2019-04-06T15:49:43.902Z,13.13
2019-04-06T15:52:15.915Z,14.17
2019-04-06T15:54:48.281Z,12.87
2019-04-06T15:57:27.760Z,12.85
2019-04-06T16:00:00.906Z,13.10
2019-04-06T16:02:37.131Z,13.50
2019-04-06T16:05:11.478Z,12.95
2019-04-06T16:07:58.186Z,13.00
2019-04-06T16:10:37.006Z,14.73
2019-04-06T16:13:18.967Z,14.50
2019-04-06T16:15:49.766Z,13.10
2019-04-06T16:18:22.354Z,13.33
2019-04-06T16:20:52.753Z,13.15
2019-04-06T16:23:39.191Z,12.83
2019-04-06T16:26:21.294Z,12.70
2019-04-06T16:28:51.278Z,13.40
2019-04-06T16:31:21.783Z,13.30
2019-04-06T16:34:07.874Z,13.13
2019-04-06T16:36:55.911Z,13.30
2019-04-06T16:39:28.932Z,13.20
2019-04-06T16:42:04.593Z,13.28
2019-04-06T16:44:34.598Z,13.03
2019-04-06T16:47:13.606Z,13.65
2019-04-06T16:49:43.650Z,12.60
2019-04-06T16:52:31.806Z,13.40
2019-04-06T16:55:14.214Z,12.82
2019-04-06T16:57:47.392Z,12.93
2019-04-06T17:00:20.103Z,13.13
2019-04-06T17:02:49.313Z,13.23
2019-04-06T17:05:31.486Z,12.63
2019-04-06T17:08:17.848Z,13.55
2019-04-06T17:10:47.860Z,12.93
2019-04-06T17:13:34.380Z,12.45
2019-04-06T17:16:13.593Z,13.70
2019-04-06T17:21:47.984Z,12.35
2019-04-06T17:24:33.195Z,13.32
2019-04-06T17:27:03.642Z,13.48
2019-04-06T17:29:35.800Z,13.35
2019-04-06T17:32:05.627Z,13.43
2019-04-06T17:34:35.943Z,13.83
2019-04-06T17:37:06.698Z,13.35
2019-04-06T17:39:42.745Z,12.88
2019-04-06T17:42:13.097Z,12.96
2019-04-06T17:44:43.184Z,13.28
2019-04-06T17:47:16.768Z,14.05
2019-04-06T17:49:53.164Z,13.72
2019-04-06T17:52:38.467Z,13.10
2019-04-06T17:55:23.890Z,13.20
2019-04-06T17:58:10.692Z,13.95
2019-04-06T18:00:52.697Z,15.03
2019-04-06T18:03:28.993Z,14.93
2019-04-06T18:06:08.125Z,16.32
2019-04-06T18:08:41.500Z,15.25
2019-04-06T18:11:27.837Z,14.95
2019-04-06T18:13:56.354Z,15.63
2019-04-06T18:16:26.273Z,15.32
2019-04-06T18:18:54.763Z,14.53
2019-04-06T18:21:23.605Z,14.65
2019-04-06T18:23:52.007Z,15.08
2019-04-06T18:26:20.386Z,14.80
2019-04-06T18:28:49.349Z,14.53
2019-04-06T18:31:25.266Z,15.93
2019-04-06T18:34:01.676Z,13.48
2019-04-06T18:36:40.306Z,14.75
2019-04-06T18:39:15.235Z,15.00
2019-04-06T18:41:48.826Z,14.03
2019-04-06T18:44:42.910Z,14.10
2019-04-06T18:46:50.460Z,14.83
2019-04-06T18:49:21.123Z,15.08
2019-04-06T18:51:49.503Z,14.68
2019-04-06T18:54:17.845Z,14.54
2019-04-06T18:56:46.760Z,15.63
2019-04-06T18:59:15.206Z,16.35
2019-04-06T19:01:45.921Z,15.25
2019-04-06T19:04:14.376Z,15.18
2019-04-06T19:06:43.183Z,14.90
2019-04-06T19:09:22.189Z,15.20
2019-04-06T19:11:52.873Z,16.07
2019-04-06T19:14:12.441Z,14.40
2019-04-06T19:16:41.067Z,14.70
2019-04-06T19:19:09.625Z,14.73
2019-04-06T19:21:38.031Z,15.08
2019-04-06T19:24:06.412Z,14.10
2019-04-06T19:26:37.313Z,13.72
2019-04-06T19:29:04.910Z,13.70
2019-04-06T19:31:33.367Z,14.63
2019-04-06T19:34:02.266Z,14.27
2019-04-06T19:36:30.773Z,13.45
2019-04-06T19:38:59.488Z,13.60
2019-04-06T19:41:27.968Z,13.45
2019-04-06T19:43:58.237Z,14.40
2019-04-06T19:46:26.418Z,13.68
2019-04-06T19:48:54.834Z,14.00
2019-04-06T19:51:23.236Z,13.53
2019-04-06T19:53:52.722Z,13.98
2019-04-06T19:56:21.166Z,13.88
2019-04-06T19:58:49.566Z,14.00
2019-04-06T20:01:18.262Z,14.33
2019-04-06T20:03:46.640Z,14.63
2019-04-06T20:06:15.521Z,13.93
2019-04-06T20:08:44.087Z,13.68
2019-04-06T20:11:12.546Z,14.38
2019-04-06T20:13:41.095Z,13.90
2019-04-06T20:16:09.847Z,14.47
2019-04-06T20:18:38.210Z,13.28
2019-04-06T20:21:06.650Z,14.58
2019-04-06T20:23:35.050Z,14.87
2019-04-06T20:26:03.470Z,14.78
2019-04-06T20:28:32.079Z,13.70
2019-04-06T20:31:00.447Z,18.75
2019-04-06T20:33:28.852Z,14.07
2019-04-06T20:35:57.524Z,13.60
2019-04-06T20:38:26.221Z,13.55
2019-04-06T20:40:54.877Z,13.93
2019-04-06T20:43:23.313Z,14.03
2019-04-06T20:45:51.755Z,14.07
2019-04-06T20:48:20.542Z,14.28
2019-04-06T20:50:48.929Z,13.78
2019-04-06T20:53:17.710Z,14.80
2019-04-06T20:55:46.294Z,14.07
2019-04-06T20:58:14.976Z,14.18
2019-04-06T21:00:43.708Z,14.95
2019-04-06T21:03:12.361Z,14.55
2019-04-06T21:05:40.740Z,13.72
2019-04-06T21:08:09.140Z,13.63
2019-04-06T21:10:37.521Z,13.75
2019-04-06T21:13:06.610Z,14.70
2019-04-06T21:15:35.141Z,13.90
2019-04-06T21:18:03.470Z,13.98
2019-04-06T21:20:31.906Z,13.90
2019-04-06T21:23:00.302Z,16.35
2019-04-06T21:25:28.937Z,14.00
2019-04-06T21:27:57.780Z,14.55
2019-04-06T21:30:26.283Z,15.00
2019-04-06T21:32:54.642Z,14.75
2019-04-06T21:35:23.613Z,14.50
2019-04-06T21:37:52.775Z,13.13
2019-04-06T21:40:21.464Z,14.30
2019-04-06T21:42:49.859Z,12.93
2019-04-06T21:45:18.414Z,13.00
2019-04-06T21:47:47.811Z,13.40
2019-04-06T21:50:16.406Z,13.37
2019-04-06T21:52:45.228Z,13.70
2019-04-06T21:55:13.866Z,14.00
2019-04-06T21:57:43.073Z,13.88
2019-04-06T22:00:13.941Z,13.72
2019-04-06T22:02:42.289Z,12.78
2019-04-06T22:05:10.977Z,13.68
2019-04-06T22:07:48.608Z,14.40
2019-04-06T22:10:09.352Z,13.60
2019-04-06T22:12:37.875Z,13.22
2019-04-06T22:15:07.493Z,13.08
2019-04-06T22:17:36.015Z,13.80
2019-04-06T22:20:04.650Z,13.75
2019-04-06T22:22:33.517Z,14.34
2019-04-06T22:25:02.247Z,14.20
2019-04-06T22:27:31.189Z,13.00
2019-04-06T22:30:00.562Z,14.28
2019-04-06T22:32:28.972Z,13.37
2019-04-06T22:34:57.836Z,13.88
2019-04-06T22:37:26.299Z,14.33
2019-04-06T22:39:54.686Z,12.90
2019-04-06T22:42:23.067Z,14.10
2019-04-06T22:44:52.146Z,13.30
2019-04-06T22:47:20.936Z,13.95
2019-04-06T22:49:49.742Z,13.88
2019-04-06T22:52:18.344Z,13.85
2019-04-06T22:54:46.649Z,14.10
2019-04-06T22:57:15.090Z,13.40
2019-04-06T22:59:43.702Z,13.58
2019-04-06T23:02:12.916Z,14.78
2019-04-06T23:04:51.653Z,13.83
2019-04-06T23:07:21.821Z,13.83
2019-04-06T23:09:50.168Z,13.93
2019-04-06T23:12:19.110Z,13.88
2019-04-06T23:14:47.788Z,14.00
2019-04-06T23:17:16.903Z,14.47
2019-04-06T23:19:45.452Z,14.07
2019-04-06T23:22:14.235Z,14.50
2019-04-06T23:24:43.113Z,15.35
2019-04-06T23:27:11.554Z,13.78
2019-04-06T23:29:40.001Z,15.23
2019-04-06T23:32:08.959Z,14.30
2019-04-06T23:34:37.308Z,15.15
2019-04-06T23:37:06.156Z,14.55
2019-04-06T23:39:34.611Z,14.83
2019-04-06T23:42:03.461Z,14.03
2019-04-06T23:44:31.969Z,13.78
2019-04-06T23:47:00.501Z,13.93
2019-04-06T23:49:29.152Z,14.65
2019-04-06T23:51:58.694Z,13.95
2019-04-06T23:54:27.057Z,13.60
2019-04-06T23:56:55.378Z,15.05
2019-04-06T23:59:23.740Z,14.18
